createdAt,value
2019-04-28T00:00:48.890Z,9.35
2019-04-28T00:01:48.879Z,9.38
2019-04-28T00:02:50.664Z,9.40
2019-04-28T00:03:48.855Z,9.45
2019-04-28T00:04:48.845Z,9.45
2019-04-28T00:05:48.834Z,9.35
2019-04-28T00:06:48.826Z,9.35
2019-04-28T00:07:50.558Z,9.30
2019-04-28T00:08:48.821Z,9.32
2019-04-28T00:09:48.796Z,9.28
2019-04-28T00:10:48.780Z,9.24
2019-04-28T00:11:48.770Z,9.27
2019-04-28T00:12:48.758Z,9.30
2019-04-28T00:13:48.773Z,9.35
2019-04-28T00:14:48.739Z,9.28
2019-04-28T00:15:48.730Z,9.35
2019-04-28T00:16:48.714Z,9.28
2019-04-28T00:17:48.707Z,9.39
2019-04-28T00:18:48.715Z,9.25
2019-04-28T00:19:48.692Z,9.28
2019-04-28T00:20:48.676Z,9.31
2019-04-28T00:21:48.663Z,9.25
2019-04-28T00:22:48.650Z,9.25
2019-04-28T00:23:48.641Z,9.30
2019-04-28T00:24:48.648Z,9.25
2019-04-28T00:25:48.619Z,9.38
2019-04-28T00:26:48.608Z,9.35
2019-04-28T00:27:48.598Z,9.42
2019-04-28T00:28:48.588Z,9.35
2019-04-28T00:29:48.605Z,9.34
2019-04-28T00:30:48.565Z,9.27
2019-04-28T00:31:48.554Z,9.28
2019-04-28T00:32:48.549Z,9.35
2019-04-28T00:33:48.537Z,9.24
2019-04-28T00:34:48.541Z,9.34
2019-04-28T00:35:48.509Z,9.27
2019-04-28T00:36:48.498Z,9.23
2019-04-28T00:37:48.488Z,9.18
2019-04-28T00:38:48.493Z,9.18
2019-04-28T00:39:48.488Z,9.34
2019-04-28T00:40:48.457Z,9.32
2019-04-28T00:41:48.446Z,9.28
2019-04-28T00:42:48.444Z,9.28
2019-04-28T00:43:48.426Z,9.21
2019-04-28T00:44:48.436Z,9.18
2019-04-28T00:45:48.403Z,9.30
2019-04-28T00:46:48.391Z,9.30
2019-04-28T00:47:48.388Z,9.23
2019-04-28T00:48:48.368Z,9.16
2019-04-28T00:49:48.403Z,9.21
2019-04-28T00:50:48.368Z,9.21
2019-04-28T00:51:48.337Z,9.21
2019-04-28T00:52:48.326Z,9.16
2019-04-28T00:53:48.314Z,9.25
2019-04-28T00:54:48.305Z,9.30
2019-04-28T00:55:48.313Z,9.39
2019-04-28T00:56:48.290Z,9.31
2019-04-28T00:57:48.279Z,9.23
2019-04-28T00:58:48.261Z,9.28
2019-04-28T00:59:57.196Z,9.27
2019-04-28T01:00:51.269Z,9.28
2019-04-28T01:01:48.244Z,9.30
2019-04-28T01:02:48.225Z,9.28
2019-04-28T01:03:48.211Z,9.28
2019-04-28T01:04:48.196Z,9.21
2019-04-28T01:05:48.205Z,9.18
2019-04-28T01:06:48.185Z,9.18
2019-04-28T01:07:48.168Z,9.15
2019-04-28T01:08:48.152Z,9.18
2019-04-28T01:09:48.147Z,9.23
2019-04-28T01:10:48.154Z,9.15
2019-04-28T01:11:48.122Z,9.20
2019-04-28T01:12:48.111Z,9.15
2019-04-28T01:13:48.100Z,9.16
2019-04-28T01:14:49.741Z,9.05
2019-04-28T01:15:49.638Z,9.15
2019-04-28T01:16:49.788Z,9.01
2019-04-28T01:17:49.696Z,9.13
2019-04-28T01:18:48.055Z,9.18
2019-04-28T01:19:49.864Z,9.02
2019-04-28T01:20:49.569Z,9.20
2019-04-28T01:21:48.014Z,9.18
2019-04-28T01:22:49.651Z,9.23
2019-04-28T01:23:47.998Z,9.18
2019-04-28T01:24:49.676Z,9.21
2019-04-28T01:25:49.995Z,9.09
2019-04-28T01:26:47.960Z,9.05
2019-04-28T01:27:47.949Z,9.09
2019-04-28T01:28:49.623Z,9.16
2019-04-28T01:29:47.938Z,9.15
2019-04-28T01:30:49.945Z,9.12
2019-04-28T01:31:49.426Z,9.06
2019-04-28T01:32:49.773Z,9.02
2019-04-28T01:33:47.889Z,9.10
2019-04-28T01:34:49.815Z,9.05
2019-04-28T01:35:49.391Z,9.06
2019-04-28T01:36:49.572Z,9.06
2019-04-28T01:37:47.843Z,9.01
2019-04-28T01:38:47.832Z,9.05
2019-04-28T01:39:49.491Z,9.09
2019-04-28T01:40:47.829Z,9.13
2019-04-28T01:41:49.497Z,8.96
2019-04-28T01:42:49.453Z,9.06
2019-04-28T01:43:47.778Z,9.12
2019-04-28T01:44:49.389Z,9.10
2019-04-28T01:45:47.780Z,9.01
2019-04-28T01:46:49.502Z,9.09
2019-04-28T01:47:47.745Z,9.01
2019-04-28T01:48:49.438Z,9.06
2019-04-28T01:49:47.712Z,9.05
2019-04-28T01:50:47.702Z,9.05
2019-04-28T01:51:47.712Z,9.02
2019-04-28T01:52:47.683Z,9.02
2019-04-28T01:53:47.670Z,8.99
2019-04-28T01:54:47.658Z,9.10
2019-04-28T01:55:49.196Z,9.05
2019-04-28T01:56:47.664Z,9.10
2019-04-28T01:57:49.652Z,9.09
2019-04-28T01:58:47.616Z,9.02
2019-04-28T01:59:47.605Z,8.96
2019-04-28T02:00:47.600Z,9.01
2019-04-28T02:01:47.603Z,9.09
2019-04-28T02:02:47.573Z,8.97
2019-04-28T02:03:47.561Z,9.06
2019-04-28T02:04:47.551Z,8.99
2019-04-28T02:05:47.551Z,8.97
2019-04-28T02:06:47.553Z,9.01
2019-04-28T02:07:47.519Z,9.02
2019-04-28T02:08:47.509Z,8.93
2019-04-28T02:09:49.029Z,8.86
2019-04-28T02:10:47.486Z,8.84
2019-04-28T02:11:49.650Z,8.94
2019-04-28T02:12:47.483Z,8.97
2019-04-28T02:13:47.453Z,8.83
2019-04-28T02:14:47.449Z,8.84
2019-04-28T02:15:47.434Z,8.83
2019-04-28T02:16:47.421Z,8.94
2019-04-28T02:17:47.432Z,8.83
2019-04-28T02:18:47.404Z,8.91
2019-04-28T02:19:47.391Z,8.94
2019-04-28T02:20:47.377Z,8.97
2019-04-28T02:21:47.369Z,8.93
2019-04-28T02:22:47.375Z,8.83
2019-04-28T02:23:47.354Z,8.84
2019-04-28T02:24:47.334Z,8.84
2019-04-28T02:25:47.324Z,8.87
2019-04-28T02:26:47.320Z,8.86
2019-04-28T02:27:47.358Z,8.73
2019-04-28T02:28:47.292Z,8.84
2019-04-28T02:29:47.282Z,8.81
2019-04-28T02:30:53.165Z,8.75
2019-04-28T02:31:50.888Z,8.84
2019-04-28T02:32:47.256Z,8.86
2019-04-28T02:33:47.256Z,8.81
2019-04-28T02:34:47.228Z,8.79
2019-04-28T02:35:47.218Z,8.81
2019-04-28T02:36:47.205Z,8.86
2019-04-28T02:37:47.225Z,8.76
2019-04-28T02:38:47.190Z,8.79
2019-04-28T02:39:47.178Z,8.71
2019-04-28T02:40:47.166Z,8.73
2019-04-28T02:41:47.181Z,8.83
2019-04-28T02:42:47.184Z,8.76
2019-04-28T02:43:47.132Z,8.76
2019-04-28T02:44:47.121Z,8.71
2019-04-28T02:45:47.112Z,8.72
2019-04-28T02:46:47.107Z,8.68
2019-04-28T02:47:47.088Z,8.73
2019-04-28T02:48:47.097Z,8.81
2019-04-28T02:49:47.076Z,8.86
2019-04-28T02:50:47.064Z,8.68
2019-04-28T02:51:47.046Z,8.78
2019-04-28T02:52:47.032Z,8.68
2019-04-28T02:53:47.043Z,8.68
2019-04-28T02:54:47.012Z,8.73
2019-04-28T02:55:47.016Z,8.69
2019-04-28T02:56:46.994Z,8.75
2019-04-28T02:57:46.984Z,8.78
2019-04-28T02:58:46.992Z,8.75
2019-04-28T02:59:46.961Z,8.75
2019-04-28T03:01:02.822Z,8.72
2019-04-28T03:01:50.796Z,8.72
2019-04-28T03:02:46.934Z,8.72
2019-04-28T03:03:46.938Z,8.83
2019-04-28T03:04:46.920Z,8.72
2019-04-28T03:05:46.895Z,8.86
2019-04-28T03:06:46.884Z,8.81
2019-04-28T03:07:46.872Z,8.86
2019-04-28T03:08:46.862Z,8.83
2019-04-28T03:09:46.878Z,8.76
2019-04-28T03:10:46.884Z,8.73
2019-04-28T03:11:46.829Z,8.69
2019-04-28T03:12:46.827Z,8.76
2019-04-28T03:13:46.809Z,8.76
2019-04-28T03:14:46.798Z,8.71
2019-04-28T03:15:46.814Z,8.73
2019-04-28T03:16:46.779Z,8.75
2019-04-28T03:17:46.773Z,8.75
2019-04-28T03:18:46.763Z,8.75
2019-04-28T03:19:46.743Z,8.69
2019-04-28T03:20:46.753Z,8.72
2019-04-28T03:21:46.721Z,8.68
2019-04-28T03:22:46.713Z,8.65
2019-04-28T03:23:46.705Z,8.50
2019-04-28T03:24:46.701Z,8.66
2019-04-28T03:25:46.699Z,8.62
2019-04-28T03:26:46.669Z,8.66
2019-04-28T03:27:46.659Z,8.66
2019-04-28T03:28:46.657Z,8.55
2019-04-28T03:29:46.645Z,8.71
2019-04-28T03:30:46.651Z,8.69
2019-04-28T03:32:13.946Z,8.66
2019-04-28T03:32:58.222Z,8.75
2019-04-28T03:33:50.390Z,8.65
2019-04-28T03:34:52.953Z,8.65
2019-04-28T03:35:47.608Z,8.68
2019-04-28T03:36:46.562Z,8.63
2019-04-28T03:37:46.548Z,8.71
2019-04-28T03:38:46.544Z,8.71
2019-04-28T03:39:46.531Z,8.72
2019-04-28T03:40:46.518Z,8.71
2019-04-28T03:41:46.532Z,8.72
2019-04-28T03:42:46.497Z,8.71
2019-04-28T03:43:46.496Z,8.72
2019-04-28T03:44:46.475Z,8.65
2019-04-28T03:45:46.475Z,8.68
2019-04-28T03:46:46.471Z,8.57
2019-04-28T03:47:46.444Z,8.62
2019-04-28T03:48:46.439Z,8.53
2019-04-28T03:49:46.421Z,8.55
2019-04-28T03:50:46.414Z,8.54
2019-04-28T03:51:46.425Z,8.63
2019-04-28T03:52:46.388Z,8.51
2019-04-28T03:53:46.375Z,8.57
2019-04-28T03:54:46.366Z,8.62
2019-04-28T03:55:46.368Z,8.53
2019-04-28T03:56:46.363Z,8.54
2019-04-28T03:57:46.336Z,8.54
2019-04-28T03:58:46.323Z,8.51
2019-04-28T03:59:46.314Z,8.54
2019-04-28T04:00:46.302Z,8.60
2019-04-28T04:01:56.631Z,8.58
2019-04-28T04:02:47.287Z,8.45
2019-04-28T04:03:46.270Z,8.62
2019-04-28T04:04:46.260Z,8.54
2019-04-28T04:05:46.250Z,8.55
2019-04-28T04:06:46.254Z,8.58
2019-04-28T04:07:46.225Z,8.55
2019-04-28T04:08:46.221Z,8.60
2019-04-28T04:09:46.206Z,8.51
2019-04-28T04:10:46.194Z,8.53
2019-04-28T04:11:46.202Z,8.62
2019-04-28T04:12:46.171Z,8.62
2019-04-28T04:13:46.188Z,8.60
2019-04-28T04:14:46.150Z,8.48
2019-04-28T04:15:50.740Z,8.51
2019-04-28T04:16:47.156Z,8.47
2019-04-28T04:17:46.123Z,8.45
2019-04-28T04:18:46.112Z,8.45
2019-04-28T04:19:46.102Z,8.47
2019-04-28T04:20:46.087Z,8.48
2019-04-28T04:21:46.084Z,8.53
2019-04-28T04:22:46.084Z,8.57
2019-04-28T04:23:46.054Z,8.47
2019-04-28T04:24:46.049Z,8.54
2019-04-28T04:25:46.036Z,8.50
2019-04-28T04:26:46.029Z,8.51
2019-04-28T04:27:46.040Z,8.48
2019-04-28T04:28:46.001Z,8.33
2019-04-28T04:29:45.993Z,8.42
2019-04-28T04:30:45.983Z,8.35
2019-04-28T04:31:45.973Z,8.45
2019-04-28T04:32:45.961Z,8.44
2019-04-28T04:33:45.965Z,8.50
2019-04-28T04:34:45.938Z,8.44
2019-04-28T04:35:45.924Z,8.50
2019-04-28T04:36:45.914Z,8.55
2019-04-28T04:37:45.909Z,8.57
2019-04-28T04:38:46.570Z,8.60
2019-04-28T04:39:45.884Z,8.53
2019-04-28T04:40:45.873Z,8.55
2019-04-28T04:41:45.867Z,8.57
2019-04-28T04:42:45.862Z,8.62
2019-04-28T04:43:45.858Z,8.57
2019-04-28T04:44:45.829Z,8.57
2019-04-28T04:45:45.818Z,8.57
2019-04-28T04:46:45.816Z,8.62
2019-04-28T04:47:45.812Z,8.54
2019-04-28T04:48:45.822Z,8.55
2019-04-28T04:49:45.774Z,8.55
2019-04-28T04:50:45.766Z,8.58
2019-04-28T04:51:45.752Z,8.57
2019-04-28T04:52:45.752Z,8.53
2019-04-28T04:53:45.735Z,8.51
2019-04-28T04:54:45.738Z,8.55
2019-04-28T04:55:45.712Z,8.63
2019-04-28T04:56:45.699Z,8.62
2019-04-28T04:57:45.689Z,8.57
2019-04-28T04:58:45.678Z,8.54
2019-04-28T04:59:45.688Z,8.60
2019-04-28T05:00:45.655Z,8.65
2019-04-28T05:01:45.645Z,8.55
2019-04-28T05:02:51.673Z,8.55
2019-04-28T05:03:46.623Z,8.63
2019-04-28T05:04:45.638Z,8.60
2019-04-28T05:05:45.601Z,8.58
2019-04-28T05:06:45.591Z,8.54
2019-04-28T05:07:45.582Z,8.63
2019-04-28T05:08:45.573Z,8.60
2019-04-28T05:09:45.582Z,8.63
2019-04-28T05:10:45.546Z,8.65
2019-04-28T05:11:45.537Z,8.73
2019-04-28T05:12:45.525Z,8.60
2019-04-28T05:13:45.521Z,8.63
2019-04-28T05:14:45.527Z,8.65
2019-04-28T05:15:45.494Z,8.65
2019-04-28T05:16:45.485Z,8.75
2019-04-28T05:17:45.474Z,8.62
2019-04-28T05:18:45.460Z,8.72
2019-04-28T05:19:45.461Z,8.65
2019-04-28T05:20:45.464Z,8.71
2019-04-28T05:21:45.429Z,8.71
2019-04-28T05:22:45.422Z,8.69
2019-04-28T05:23:45.408Z,8.65
2019-04-28T05:24:46.245Z,8.72
2019-04-28T05:25:46.404Z,8.69
2019-04-28T05:26:47.708Z,8.68
2019-04-28T05:27:45.365Z,8.72
2019-04-28T05:28:51.429Z,8.76
2019-04-28T05:29:46.345Z,8.79
2019-04-28T05:30:45.352Z,8.75
2019-04-28T05:31:45.331Z,8.75
2019-04-28T05:32:49.826Z,8.75
2019-04-28T05:33:46.299Z,8.75
2019-04-28T05:34:46.763Z,8.69
2019-04-28T05:35:45.301Z,8.76
2019-04-28T05:36:45.268Z,8.72
2019-04-28T05:37:45.263Z,8.79
2019-04-28T05:38:45.245Z,8.76
2019-04-28T05:39:45.234Z,8.79
2019-04-28T05:40:45.246Z,8.72
2019-04-28T05:41:45.215Z,8.83
2019-04-28T05:42:45.205Z,8.75
2019-04-28T05:43:45.192Z,8.73
2019-04-28T05:44:45.181Z,8.86
2019-04-28T05:45:45.192Z,8.81
2019-04-28T05:46:45.159Z,8.71
2019-04-28T05:47:45.149Z,8.86
2019-04-28T05:48:45.141Z,8.76
2019-04-28T05:49:45.129Z,8.76
2019-04-28T05:50:45.145Z,8.75
2019-04-28T05:51:45.106Z,8.69
2019-04-28T05:52:45.096Z,8.81
2019-04-28T05:53:45.084Z,8.84
2019-04-28T05:54:45.078Z,8.86
2019-04-28T05:55:45.104Z,8.81
2019-04-28T05:56:45.054Z,8.88
2019-04-28T05:57:45.042Z,8.79
2019-04-28T05:58:45.033Z,8.87
2019-04-28T05:59:45.023Z,8.83
2019-04-28T06:00:45.008Z,8.76
2019-04-28T06:01:45.019Z,8.84
2019-04-28T06:02:54.164Z,8.84
2019-04-28T06:03:45.983Z,8.86
2019-04-28T06:04:44.965Z,8.84
2019-04-28T06:05:44.955Z,8.91
2019-04-28T06:06:44.962Z,8.81
2019-04-28T06:07:44.933Z,8.88
2019-04-28T06:08:44.924Z,8.91
2019-04-28T06:09:44.914Z,8.84
2019-04-28T06:10:44.900Z,8.87
2019-04-28T06:11:44.912Z,8.86
2019-04-28T06:12:44.879Z,8.90
2019-04-28T06:13:44.881Z,8.83
2019-04-28T06:14:44.856Z,8.97
2019-04-28T06:15:44.847Z,8.86
2019-04-28T06:16:44.860Z,8.96
2019-04-28T06:17:44.825Z,9.09
2019-04-28T06:18:44.819Z,9.02
2019-04-28T06:19:44.804Z,9.06
2019-04-28T06:20:44.793Z,8.97
2019-04-28T06:21:44.784Z,9.10
2019-04-28T06:22:44.791Z,9.05
2019-04-28T06:23:44.816Z,9.16
2019-04-28T06:24:44.752Z,9.01
2019-04-28T06:25:44.741Z,9.09
2019-04-28T06:26:44.728Z,9.09
2019-04-28T06:27:44.738Z,9.12
2019-04-28T06:28:44.706Z,9.06
2019-04-28T06:29:44.700Z,9.06
2019-04-28T06:30:44.684Z,9.16
2019-04-28T06:31:44.720Z,9.10
2019-04-28T06:32:44.689Z,9.09
2019-04-28T06:33:44.702Z,9.12
2019-04-28T06:34:44.643Z,9.16
2019-04-28T06:35:44.631Z,9.20
2019-04-28T06:36:44.623Z,9.25
2019-04-28T06:37:44.674Z,9.25
2019-04-28T06:38:44.599Z,9.27
2019-04-28T06:39:47.206Z,9.31
2019-04-28T06:40:44.577Z,9.28
2019-04-28T06:41:44.568Z,9.34
2019-04-28T06:42:44.575Z,9.35
2019-04-28T06:43:44.548Z,9.39
2019-04-28T06:44:44.594Z,9.42
2019-04-28T06:45:44.529Z,9.43
2019-04-28T06:46:44.512Z,9.42
2019-04-28T06:47:44.525Z,9.46
2019-04-28T06:48:44.500Z,9.49
2019-04-28T06:49:44.482Z,9.46
2019-04-28T06:50:44.469Z,9.42
2019-04-28T06:51:44.479Z,9.39
2019-04-28T06:52:44.448Z,9.39
2019-04-28T06:53:44.442Z,9.39
2019-04-28T06:54:44.431Z,9.50
2019-04-28T06:55:44.416Z,9.40
2019-04-28T06:56:44.459Z,9.45
2019-04-28T06:57:44.397Z,9.40
2019-04-28T06:58:44.396Z,9.42
2019-04-28T06:59:44.378Z,9.45
2019-04-28T07:00:44.361Z,9.42
2019-04-28T07:01:45.242Z,9.39
2019-04-28T07:02:44.339Z,9.42
2019-04-28T07:03:44.335Z,9.49
2019-04-28T07:04:44.323Z,9.57
2019-04-28T07:05:44.419Z,9.46
2019-04-28T07:06:44.328Z,9.46
2019-04-28T07:07:44.286Z,9.58
2019-04-28T07:08:44.274Z,9.70
2019-04-28T07:09:44.264Z,9.78
2019-04-28T07:10:44.255Z,9.78
2019-04-28T07:11:44.266Z,9.91
2019-04-28T07:12:44.232Z,10.15
2019-04-28T07:13:44.308Z,10.15
2019-04-28T07:14:44.211Z,10.26
2019-04-28T07:15:44.199Z,10.37
2019-04-28T07:16:44.208Z,10.40
2019-04-28T07:17:44.190Z,10.43
2019-04-28T07:18:44.181Z,10.46
2019-04-28T07:19:44.156Z,10.59
2019-04-28T07:20:44.148Z,10.66
2019-04-28T07:21:44.157Z,10.63
2019-04-28T07:22:44.123Z,10.77
2019-04-28T07:23:44.119Z,10.74
2019-04-28T07:24:44.961Z,10.74
2019-04-28T07:25:44.092Z,10.78
2019-04-28T07:26:44.112Z,10.83
2019-04-28T07:27:44.103Z,10.88
2019-04-28T07:28:44.059Z,10.73
2019-04-28T07:29:44.049Z,10.77
2019-04-28T07:30:44.041Z,10.74
2019-04-28T07:31:44.026Z,10.70
2019-04-28T07:32:44.035Z,10.63
2019-04-28T07:33:44.006Z,10.55
2019-04-28T07:34:43.994Z,10.65
2019-04-28T07:35:44.000Z,10.59
2019-04-28T07:36:43.995Z,10.68
2019-04-28T07:37:43.965Z,10.76
2019-04-28T07:38:43.952Z,10.80
2019-04-28T07:39:43.950Z,10.96
2019-04-28T07:40:43.931Z,10.92
2019-04-28T07:41:43.940Z,11.09
2019-04-28T07:42:43.910Z,11.07
2019-04-28T07:43:43.898Z,11.21
2019-04-28T07:44:43.891Z,11.35
2019-04-28T07:45:43.877Z,11.43
2019-04-28T07:46:43.897Z,11.50
2019-04-28T07:47:43.858Z,11.50
2019-04-28T07:48:43.846Z,11.43
2019-04-28T07:49:43.835Z,11.34
2019-04-28T07:50:43.863Z,11.41
2019-04-28T07:51:43.815Z,11.36
2019-04-28T07:52:43.829Z,11.44
2019-04-28T07:53:43.794Z,11.57
2019-04-28T07:54:43.779Z,11.65
2019-04-28T07:55:43.767Z,11.72
2019-04-28T07:56:43.764Z,11.62
2019-04-28T07:57:43.766Z,11.83
2019-04-28T07:58:43.738Z,11.77
2019-04-28T07:59:43.726Z,11.83
2019-04-28T08:00:43.723Z,11.86
2019-04-28T08:01:43.707Z,11.87
2019-04-28T08:02:43.712Z,11.99
2019-04-28T08:03:49.550Z,11.90
2019-04-28T08:04:44.702Z,11.97
2019-04-28T08:05:43.674Z,12.01
2019-04-28T08:06:43.649Z,12.08
2019-04-28T08:07:43.667Z,12.02
2019-04-28T08:08:43.636Z,12.05
2019-04-28T08:09:43.625Z,12.16
2019-04-28T08:10:43.607Z,12.23
2019-04-28T08:11:43.600Z,12.21
2019-04-28T08:12:43.607Z,12.13
2019-04-28T08:13:43.578Z,12.12
2019-04-28T08:14:43.568Z,12.06
2019-04-28T08:15:43.556Z,12.08
2019-04-28T08:16:43.542Z,11.96
2019-04-28T08:17:43.554Z,11.93
2019-04-28T08:18:43.527Z,11.96
2019-04-28T08:19:43.510Z,11.94
2019-04-28T08:20:43.516Z,11.87
2019-04-28T08:21:43.490Z,11.94
2019-04-28T08:22:43.505Z,11.78
2019-04-28T08:23:47.272Z,11.75
2019-04-28T08:24:43.458Z,11.74
2019-04-28T08:25:43.450Z,11.80
2019-04-28T08:26:43.458Z,11.86
2019-04-28T08:27:43.438Z,11.86
2019-04-28T08:28:43.435Z,11.87
2019-04-28T08:29:43.405Z,11.87
2019-04-28T08:30:43.460Z,11.97
2019-04-28T08:31:43.386Z,11.97
2019-04-28T08:32:43.377Z,12.01
2019-04-28T08:33:43.383Z,11.94
2019-04-28T08:34:43.351Z,11.93
2019-04-28T08:35:43.344Z,11.99
2019-04-28T08:36:43.329Z,11.89
2019-04-28T08:37:43.321Z,12.02
2019-04-28T08:38:43.328Z,11.93
2019-04-28T08:39:43.296Z,11.87
2019-04-28T08:40:43.285Z,11.99
2019-04-28T08:41:43.276Z,11.89
2019-04-28T08:42:43.268Z,12.01
2019-04-28T08:43:43.281Z,12.11
2019-04-28T08:44:43.242Z,12.06
2019-04-28T08:45:43.232Z,12.05
2019-04-28T08:46:43.237Z,12.06
2019-04-28T08:47:43.209Z,12.23
2019-04-28T08:48:43.221Z,12.08
2019-04-28T08:49:43.191Z,12.02
2019-04-28T08:50:43.180Z,12.05
2019-04-28T08:51:43.167Z,12.04
2019-04-28T08:52:43.174Z,12.05
2019-04-28T08:53:43.148Z,12.11
2019-04-28T08:54:43.154Z,12.06
2019-04-28T08:55:43.124Z,12.05
2019-04-28T08:56:43.118Z,12.05
2019-04-28T08:57:43.106Z,12.02
2019-04-28T08:58:43.117Z,12.05
2019-04-28T08:59:43.084Z,12.09
2019-04-28T09:00:43.070Z,12.11
2019-04-28T09:01:43.068Z,12.09
2019-04-28T09:02:43.050Z,12.04
2019-04-28T09:03:43.039Z,12.05
2019-04-28T09:04:43.046Z,12.11
2019-04-28T09:05:43.018Z,12.08
2019-04-28T09:06:51.541Z,12.08
2019-04-28T09:07:43.004Z,12.08
2019-04-28T09:08:42.983Z,12.08
2019-04-28T09:09:43.002Z,11.94
2019-04-28T09:10:42.966Z,11.96
2019-04-28T09:11:42.974Z,12.08
2019-04-28T09:12:42.944Z,12.09
2019-04-28T09:13:44.060Z,12.13
2019-04-28T09:14:42.948Z,12.23
2019-04-28T09:15:42.918Z,12.23
2019-04-28T09:16:42.900Z,12.21
2019-04-28T09:17:42.888Z,12.31
2019-04-28T09:18:42.878Z,12.39
2019-04-28T09:19:42.913Z,12.38
2019-04-28T09:20:42.857Z,12.46
2019-04-28T09:21:42.846Z,12.44
2019-04-28T09:22:42.836Z,12.49
2019-04-28T09:23:42.825Z,12.46
2019-04-28T09:24:42.814Z,12.37
2019-04-28T09:25:42.826Z,12.38
2019-04-28T09:26:42.792Z,12.34
2019-04-28T09:27:42.784Z,12.31
2019-04-28T09:28:42.771Z,12.30
2019-04-28T09:29:42.768Z,12.37
2019-04-28T09:30:42.774Z,12.33
2019-04-28T09:31:42.738Z,12.38
2019-04-28T09:32:42.729Z,12.24
2019-04-28T09:33:42.723Z,12.26
2019-04-28T09:34:42.716Z,12.26
2019-04-28T09:35:42.719Z,12.31
2019-04-28T09:36:42.740Z,12.24
2019-04-28T09:37:42.677Z,12.29
2019-04-28T09:38:42.663Z,12.38
2019-04-28T09:39:42.658Z,12.37
2019-04-28T09:40:42.686Z,12.42
2019-04-28T09:41:42.632Z,12.49
2019-04-28T09:42:42.621Z,12.42
2019-04-28T09:43:42.611Z,12.54
2019-04-28T09:44:42.625Z,12.51
2019-04-28T09:45:42.589Z,12.46
2019-04-28T09:46:42.595Z,12.48
2019-04-28T09:47:42.577Z,12.31
2019-04-28T09:48:42.587Z,12.23
2019-04-28T09:49:42.546Z,12.29
2019-04-28T09:50:42.536Z,12.20
2019-04-28T09:51:42.563Z,12.24
2019-04-28T09:52:42.531Z,12.34
2019-04-28T09:53:42.502Z,12.16
2019-04-28T09:54:42.490Z,12.23
2019-04-28T09:55:42.479Z,12.31
2019-04-28T09:56:55.774Z,12.29
2019-04-28T09:57:43.467Z,12.38
2019-04-28T09:58:42.532Z,12.49
2019-04-28T09:59:42.437Z,12.42
2019-04-28T10:00:42.426Z,12.39
2019-04-28T10:01:42.441Z,12.56
2019-04-28T10:02:49.474Z,12.57
2019-04-28T10:03:42.395Z,12.60
2019-04-28T10:04:42.483Z,12.64
2019-04-28T10:05:42.434Z,12.69
2019-04-28T10:06:42.405Z,12.78
2019-04-28T10:07:42.356Z,12.97
2019-04-28T10:08:42.340Z,12.92
2019-04-28T10:09:42.338Z,12.84
2019-04-28T10:10:42.319Z,12.88
2019-04-28T10:11:42.310Z,12.89
2019-04-28T10:12:42.316Z,12.95
2019-04-28T10:13:42.290Z,12.93
2019-04-28T10:14:42.340Z,12.79
2019-04-28T10:15:42.266Z,12.84
2019-04-28T10:16:42.591Z,12.85
2019-04-28T10:17:42.503Z,12.87
2019-04-28T10:18:42.400Z,12.74
2019-04-28T10:19:42.225Z,12.70
2019-04-28T10:20:42.212Z,12.62
2019-04-28T10:21:42.203Z,12.51
2019-04-28T10:22:42.231Z,12.49
2019-04-28T10:23:42.185Z,12.39
2019-04-28T10:24:42.169Z,12.34
2019-04-28T10:25:42.159Z,12.13
2019-04-28T10:26:42.155Z,12.11
2019-04-28T10:27:42.137Z,12.19
2019-04-28T10:28:42.146Z,12.06
2019-04-28T10:29:42.116Z,12.02
2019-04-28T10:30:42.103Z,12.06
2019-04-28T10:31:42.106Z,11.94
2019-04-28T10:32:42.107Z,11.93
2019-04-28T10:33:42.073Z,12.04
2019-04-28T10:34:54.043Z,12.05
2019-04-28T10:35:43.054Z,12.08
2019-04-28T10:36:42.041Z,12.15
2019-04-28T10:37:42.050Z,12.15
2019-04-28T10:38:42.031Z,12.29
2019-04-28T10:39:42.008Z,12.42
2019-04-28T10:40:42.002Z,12.63
2019-04-28T10:41:41.990Z,12.70
2019-04-28T10:42:41.998Z,12.71
2019-04-28T10:43:41.966Z,12.74
2019-04-28T10:44:41.956Z,12.78
2019-04-28T10:45:41.945Z,12.96
2019-04-28T10:46:41.934Z,12.92
2019-04-28T10:47:41.943Z,13.04
2019-04-28T10:48:41.912Z,13.21
2019-04-28T10:49:41.932Z,13.38
2019-04-28T10:50:41.890Z,13.38
2019-04-28T10:51:41.882Z,13.52
2019-04-28T10:52:41.894Z,13.59
2019-04-28T10:53:41.862Z,13.70
2019-04-28T10:54:41.847Z,13.70
2019-04-28T10:55:41.838Z,13.80
2019-04-28T10:56:41.825Z,13.96
2019-04-28T10:57:41.816Z,14.04
2019-04-28T10:58:41.837Z,14.02
2019-04-28T10:59:41.792Z,14.02
2019-04-28T11:00:41.783Z,14.19
2019-04-28T11:01:41.772Z,14.16
2019-04-28T11:02:41.760Z,14.24
2019-04-28T11:03:41.770Z,14.47
2019-04-28T11:04:41.746Z,14.61
2019-04-28T11:05:41.728Z,14.65
2019-04-28T11:06:41.718Z,14.90
2019-04-28T11:07:41.714Z,14.75
2019-04-28T11:08:41.719Z,14.81
2019-04-28T11:09:41.684Z,14.80
2019-04-28T11:10:41.673Z,14.91
2019-04-28T11:11:41.664Z,14.94
2019-04-28T11:12:41.651Z,14.88
2019-04-28T11:13:41.678Z,14.90
2019-04-28T11:14:41.632Z,14.67
2019-04-28T11:15:41.621Z,14.65
2019-04-28T11:16:41.609Z,14.74
2019-04-28T11:17:41.606Z,14.57
2019-04-28T11:18:41.588Z,14.38
2019-04-28T11:19:41.595Z,14.04
2019-04-28T11:20:41.565Z,13.91
2019-04-28T11:21:41.562Z,13.83
2019-04-28T11:22:41.553Z,13.65
2019-04-28T11:23:41.533Z,13.46
2019-04-28T11:24:41.542Z,13.43
2019-04-28T11:25:41.512Z,13.27
2019-04-28T11:26:41.499Z,13.18
2019-04-28T11:27:41.494Z,13.32
2019-04-28T11:28:41.477Z,13.38
2019-04-28T11:29:41.487Z,13.44
2019-04-28T11:30:41.463Z,13.52
2019-04-28T11:31:41.458Z,13.61
2019-04-28T11:32:41.434Z,13.71
2019-04-28T11:33:41.425Z,13.71
2019-04-28T11:34:41.434Z,13.92
2019-04-28T11:35:41.405Z,14.09
2019-04-28T11:36:41.391Z,14.25
2019-04-28T11:37:41.381Z,14.49
2019-04-28T11:38:41.416Z,14.60
2019-04-28T11:39:41.387Z,14.61
2019-04-28T11:40:41.359Z,14.69
2019-04-28T11:41:41.343Z,14.83
2019-04-28T11:42:41.327Z,14.71
2019-04-28T11:43:41.319Z,14.69
2019-04-28T11:44:41.325Z,14.87
2019-04-28T11:45:41.373Z,14.81
2019-04-28T11:46:41.288Z,14.78
2019-04-28T11:47:41.280Z,14.94
2019-04-28T11:48:41.261Z,14.94
2019-04-28T11:49:41.270Z,15.06
2019-04-28T11:50:41.242Z,15.09
2019-04-28T11:51:41.229Z,15.09
2019-04-28T11:52:41.221Z,15.05
2019-04-28T11:53:41.207Z,15.06
2019-04-28T11:54:41.214Z,15.09
2019-04-28T11:55:41.191Z,14.95
2019-04-28T11:56:41.989Z,14.91
2019-04-28T11:57:41.167Z,14.71
2019-04-28T11:58:41.151Z,14.80
2019-04-28T11:59:41.161Z,14.64
2019-04-28T12:00:41.137Z,14.44
2019-04-28T12:01:41.119Z,14.35
2019-04-28T12:02:41.110Z,14.37
2019-04-28T12:03:41.098Z,14.42
2019-04-28T12:04:41.110Z,14.25
2019-04-28T12:05:41.082Z,14.14
2019-04-28T12:06:41.065Z,14.16
2019-04-28T12:07:41.053Z,14.17
2019-04-28T12:08:41.042Z,14.24
2019-04-28T12:09:41.061Z,14.25
2019-04-28T12:10:41.021Z,14.32
2019-04-28T12:11:41.009Z,14.37
2019-04-28T12:12:40.998Z,14.49
2019-04-28T12:13:40.996Z,14.60
2019-04-28T12:14:41.024Z,14.44
2019-04-28T12:15:40.970Z,14.38
2019-04-28T12:16:40.955Z,14.57
2019-04-28T12:17:40.943Z,14.54
2019-04-28T12:18:40.939Z,14.42
2019-04-28T12:19:40.922Z,14.43
2019-04-28T12:20:40.931Z,14.32
2019-04-28T12:21:40.904Z,14.28
2019-04-28T12:22:40.891Z,14.38
2019-04-28T12:23:40.881Z,14.52
2019-04-28T12:24:40.875Z,14.50
2019-04-28T12:25:40.875Z,14.56
2019-04-28T12:26:40.846Z,14.56
2019-04-28T12:27:40.838Z,14.65
2019-04-28T12:28:40.877Z,14.75
2019-04-28T12:29:40.812Z,14.91
2019-04-28T12:30:40.829Z,14.67
2019-04-28T12:31:40.791Z,14.54
2019-04-28T12:32:40.784Z,14.46
2019-04-28T12:33:40.768Z,14.29
2019-04-28T12:34:40.758Z,14.20
2019-04-28T12:35:47.623Z,14.01
2019-04-28T12:36:41.744Z,14.01
2019-04-28T12:37:40.728Z,14.09
2019-04-28T12:38:40.756Z,13.91
2019-04-28T12:39:40.704Z,13.87
2019-04-28T12:40:40.693Z,13.70
2019-04-28T12:41:40.716Z,13.61
2019-04-28T12:42:40.672Z,13.51
2019-04-28T12:43:40.693Z,13.40
2019-04-28T12:44:40.657Z,13.33
2019-04-28T12:45:40.638Z,13.22
2019-04-28T12:46:40.634Z,13.18
2019-04-28T12:47:40.624Z,13.14
2019-04-28T12:48:40.632Z,13.29
2019-04-28T12:49:40.596Z,13.18
2019-04-28T12:50:40.586Z,13.15
2019-04-28T12:51:40.573Z,13.07
2019-04-28T12:52:40.562Z,13.06
2019-04-28T12:53:40.551Z,12.96
2019-04-28T12:54:40.565Z,13.00
2019-04-28T12:55:40.534Z,12.95
2019-04-28T12:56:40.532Z,12.89
2019-04-28T12:57:40.507Z,13.02
2019-04-28T12:58:40.498Z,13.14
2019-04-28T12:59:40.519Z,13.12
2019-04-28T13:00:40.485Z,13.06
2019-04-28T13:01:40.464Z,13.09
2019-04-28T13:02:40.453Z,12.82
2019-04-28T13:03:40.444Z,12.87
2019-04-28T13:04:40.432Z,12.88
2019-04-28T13:05:40.448Z,12.64
2019-04-28T13:06:40.408Z,12.64